Time;durP1;ratioP1;P1;durP2;ratioP2;P2;SDS_P1;SDS_P2;PMS_P1;PMS_P2;Temp;Humidity;BMP_temperature;BMP_pressure;BME280_temperature;BME280_humidity;BME280_pressure;Samples;Min_cycle;Max_cycle;Signal;HPM_P1;HPM_P2
2023/03/01 08:41:03;;;;;;;26.10;16.90;;;;;;;7.62;48.38;97021.00;2081442;28;20550;-62
2023/03/01 08:42:04;;;;;;;28.95;16.67;;;;;;;7.77;47.57;97025.78;2083000;28;20201;-62
2023/03/01 08:43:06;;;;;;;29.67;17.52;;;;;;;7.25;48.62;97021.94;2082628;28;20205;-63
2023/03/01 08:44:10;;;;;;;25.23;15.73;;;;;;;7.36;48.86;97012.13;2082344;28;20232;-63
2023/03/01 08:45:14;;;;;;;31.95;18.23;;;;;;;7.58;48.50;97016.78;2082510;28;20288;-63
2023/03/01 08:46:15;;;;;;;51.88;20.25;;;;;;;7.45;48.33;97011.03;2080643;28;20687;-63
2023/03/01 08:47:17;;;;;;;25.15;16.83;;;;;;;8.13;47.63;97024.81;2079396;28;20200;-65
2023/03/01 08:48:18;;;;;;;36.13;19.80;;;;;;;7.05;47.94;97023.31;2079085;28;20201;-64
2023/03/01 08:49:20;;;;;;;62.83;36.30;;;;;;;7.59;48.42;97008.09;2082084;28;20223;-67
2023/03/01 08:50:24;;;;;;;73.95;45.72;;;;;;;8.26;47.53;97012.28;2086653;28;20674;-66
2023/03/01 08:51:26;;;;;;;88.65;52.38;;;;;;;8.22;46.53;97006.31;2084882;28;20228;-67
2023/03/01 08:52:28;;;;;;;72.70;40.45;;;;;;;8.26;46.19;96999.28;2079222;28;20486;-68
2023/03/01 08:53:30;;;;;;;34.50;19.65;;;;;;;7.96;47.55;97010.53;2079810;28;20236;-67
2023/03/01 08:54:31;;;;;;;25.77;17.95;;;;;;;8.45;46.49;97005.63;2081031;28;20639;-67
2023/03/01 08:55:33;;;;;;;32.20;17.92;;;;;;;8.83;45.87;97007.97;2081349;28;20302;-67
2023/03/01 08:56:34;;;;;;;28.92;17.77;;;;;;;8.73;45.55;97001.34;2083998;28;20235;-67
2023/03/01 08:57:35;;;;;;;29.42;17.90;;;;;;;9.43;45.00;97000.78;2079617;28;20224;-67
2023/03/01 08:58:39;;;;;;;27.27;18.02;;;;;;;8.87;45.48;96995.69;2080147;28;20201;-67
2023/03/01 08:59:41;;;;;;;25.75;17.13;;;;;;;8.88;45.71;97011.28;2082219;28;20505;-67
2023/03/01 09:00:42;;;;;;;28.17;16.55;;;;;;;9.40;45.24;97010.47;2083787;28;20212;-67
2023/03/01 09:01:44;;;;;;;24.88;16.70;;;;;;;8.87;45.17;97006.97;2078944;28;20232;-68
2023/03/01 09:02:45;;;;;;;27.25;17.27;;;;;;;8.89;45.94;97009.50;2079296;28;20227;-67
2023/03/01 09:03:47;;;;;;;27.70;16.70;;;;;;;8.79;45.33;97003.75;2082901;28;20201;-67
2023/03/01 09:04:49;;;;;;;28.67;17.27;;;;;;;9.04;45.04;97006.44;2083159;28;20232;-68
2023/03/01 09:05:51;;;;;;;33.10;17.55;;;;;;;9.20;44.97;97003.31;2081607;28;20249;-67
2023/03/01 09:06:53;;;;;;;28.15;18.15;;;;;;;8.49;45.90;97009.88;2083600;28;20196;-67
2023/03/01 09:07:54;;;;;;;25.23;17.40;;;;;;;9.11;45.56;96996.66;2083742;28;20193;-67
2023/03/01 09:08:56;;;;;;;26.50;17.00;;;;;;;9.43;44.47;96999.91;2080235;28;20197;-67
2023/03/01 09:09:57;;;;;;;26.42;16.40;;;;;;;9.50;44.07;96985.78;2081424;28;20201;-67
2023/03/01 09:11:02;;;;;;;22.38;14.98;;;;;;;9.85;43.80;96986.25;2081064;28;20288;-67
2023/03/01 09:12:04;;;;;;;25.02;17.05;;;;;;;9.95;44.02;97002.44;2083067;28;20664;-67
2023/03/01 09:13:06;;;;;;;32.65;18.20;;;;;;;10.33;43.36;96987.09;2083122;28;20276;-67
2023/03/01 09:14:07;;;;;;;27.30;16.05;;;;;;;10.14;43.32;96986.94;2082383;28;20196;-69
2023/03/01 09:15:09;;;;;;;23.52;16.33;;;;;;;10.12;43.52;96986.16;2084329;28;20294;-67
2023/03/01 09:16:13;;;;;;;24.80;17.13;;;;;;;10.50;42.98;96989.09;2082722;28;20227;-67
2023/03/01 09:17:14;;;;;;;21.88;15.38;;;;;;;10.89;41.84;96984.97;2083614;28;20200;-67
2023/03/01 09:18:16;;;;;;;35.95;18.80;;;;;;;10.84;42.23;96985.13;2082737;28;20226;-67
2023/03/01 09:19:17;;;;;;;26.15;17.38;;;;;;;10.63;42.68;96979.03;2080315;28;20233;-68
2023/03/01 09:20:19;;;;;;;30.02;19.88;;;;;;;9.86;43.18;96989.72;2079029;28;20209;-68
2023/03/01 09:21:22;;;;;;;28.95;17.50;;;;;;;10.15;43.03;96977.38;2079806;28;20237;-67
2023/03/01 09:22:39;;;;;;;29.80;16.52;;;;;;;10.36;43.02;96988.78;2080780;28;20253;-67
2023/03/01 09:23:43;;;;;;;26.92;17.10;;;;;;;10.54;41.99;96981.97;2083131;28;20208;-68
2023/03/01 09:24:45;;;;;;;27.33;16.90;;;;;;;10.28;42.75;96974.25;2080751;28;20936;-68
2023/03/01 09:25:47;;;;;;;25.75;16.58;;;;;;;10.72;42.52;96980.44;2081185;28;20201;-67
2023/03/01 09:26:49;;;;;;;25.77;18.40;;;;;;;10.89;42.64;96977.13;2083793;28;20194;-67
2023/03/01 09:27:52;;;;;;;21.77;15.70;;;;;;;11.31;41.64;96976.25;2083433;28;20287;-67
2023/03/01 09:28:55;;;;;;;23.38;17.55;;;;;;;11.06;41.42;96979.06;2081687;28;20198;-67
2023/03/01 09:29:57;;;;;;;25.48;17.92;;;;;;;10.40;42.62;96974.72;2082245;28;20197;-68
2023/03/01 09:30:59;;;;;;;29.38;17.73;;;;;;;10.55;42.58;96970.63;2082397;28;20188;-67
2023/03/01 09:32:01;;;;;;;26.77;16.75;;;;;;;10.97;42.08;96969.84;2080440;28;20196;-67
2023/03/01 09:33:03;;;;;;;25.30;16.58;;;;;;;11.25;41.73;96972.13;2080799;28;20207;-67
2023/03/01 09:34:04;;;;;;;24.67;16.83;;;;;;;11.74;40.90;96974.41;2084732;28;20207;-67
2023/03/01 09:35:06;;;;;;;25.00;17.58;;;;;;;11.76;40.45;96971.72;2081641;28;20205;-68
2023/03/01 09:36:16;;;;;;;24.30;17.27;;;;;;;11.44;41.23;96971.38;2081150;28;20224;-67
2023/03/01 09:37:18;;;;;;;30.38;19.25;;;;;;;11.36;40.99;96963.81;2080516;28;20197;-68
2023/03/01 09:38:19;;;;;;;24.95;17.30;;;;;;;11.87;40.59;96968.63;2081731;28;20849;-67
2023/03/01 09:39:20;;;;;;;27.52;18.85;;;;;;;12.31;39.28;96967.56;2081447;28;20205;-67
2023/03/01 09:40:25;;;;;;;28.10;18.02;;;;;;;12.49;39.62;96960.59;2086136;28;20243;-66
2023/03/01 09:41:49;;;;;;;27.17;17.35;;;;;;;12.38;39.42;96969.81;2084681;28;20548;-66
2023/03/01 09:43:08;;;;;;;26.15;17.98;;;;;;;12.29;39.75;96966.78;2081880;28;20197;-67
2023/03/01 09:44:30;;;;;;;24.10;16.65;;;;;;;12.89;38.93;96964.78;2082164;28;20209;-69
2023/03/01 09:45:39;;;;;;;25.73;16.30;;;;;;;12.35;39.12;96959.47;2081282;28;20201;-69
2023/03/01 09:46:44;;;;;;;30.25;16.00;;;;;;;12.85;38.41;96957.13;2081020;28;20228;-69
2023/03/01 09:47:45;;;;;;;27.35;17.63;;;;;;;12.76;38.14;96958.44;2078737;28;20737;-69
2023/03/01 09:49:09;;;;;;;27.40;18.00;;;;;;;11.99;39.40;96954.19;2080060;28;20201;-69
2023/03/01 09:50:17;;;;;;;24.60;17.80;;;;;;;11.85;40.36;96966.06;2080128;28;20205;-69
2023/03/01 09:51:25;;;;;;;27.10;17.70;;;;;;;12.05;39.23;96953.91;2077684;28;20228;-69
2023/03/01 09:52:41;;;;;;;24.58;17.15;;;;;;;12.20;39.07;96960.19;2074093;28;20205;-69
2023/03/01 09:53:43;;;;;;;26.48;17.08;;;;;;;12.19;39.27;96964.59;2079530;28;20647;-69
2023/03/01 09:54:46;;;;;;;29.73;19.27;;;;;;;12.27;39.14;96958.16;2080556;28;20205;-68
2023/03/01 09:56:18;;;;;;;26.77;17.15;;;;;;;11.07;39.92;96963.31;2074091;28;20213;-68
2023/03/01 09:57:29;;;;;;;28.98;18.00;;;;;;;11.01;40.90;96968.78;2075487;28;20206;-68
2023/03/01 09:58:46;;;;;;;28.90;17.35;;;;;;;10.98;39.65;96955.00;2074816;28;20198;-68
2023/03/01 10:00:16;;;;;;;30.08;17.42;;;;;;;9.75;42.29;96967.50;2072971;28;20280;-66
2023/03/01 10:01:49;;;;;;;30.33;17.40;;;;;;;9.59;41.60;96959.38;2073362;28;20249;-65
2023/03/01 10:02:59;;;;;;;33.35;18.17;;;;;;;10.85;41.05;96957.28;2075550;28;20208;-65
2023/03/01 10:04:23;;;;;;;30.73;17.38;;;;;;;9.88;41.85;96959.22;2073069;28;20244;-65
2023/03/01 10:05:29;;;;;;;32.33;18.05;;;;;;;11.13;40.13;96949.13;2075199;28;20201;-65
2023/03/01 10:06:31;;;;;;;28.02;16.15;;;;;;;10.56;40.10;96964.50;2076232;28;20225;-65
2023/03/01 10:07:59;;;;;;;32.80;17.33;;;;;;;9.69;41.81;96952.06;2077375;28;20203;-66
2023/03/01 10:09:30;;;;;;;27.10;17.48;;;;;;;10.74;41.06;96945.50;2076232;28;20652;-65
2023/03/01 10:10:37;;;;;;;34.40;18.23;;;;;;;11.33;39.70;96947.44;2076562;28;20898;-65
2023/03/01 10:11:44;;;;;;;28.05;17.90;;;;;;;11.55;39.46;96944.75;2076571;28;20217;-65
2023/03/01 10:12:46;;;;;;;30.23;17.95;;;;;;;11.35;39.81;96942.97;2076152;28;20209;-65
2023/03/01 10:14:33;;;;;;;42.05;18.15;;;;;;;10.70;40.50;96945.69;2076218;28;20534;-66
2023/03/01 10:15:48;;;;;;;30.80;16.98;;;;;;;12.02;39.28;96946.19;2063205;28;20198;-65
2023/03/01 10:16:58;;;;;;;28.70;16.83;;;;;;;12.60;38.84;96934.75;2068676;28;20276;-65
2023/03/01 10:18:07;;;;;;;31.50;16.45;;;;;;;11.80;38.42;96944.50;2076795;28;20220;-66
2023/03/01 10:19:16;;;;;;;30.27;17.88;;;;;;;8.86;42.23;96947.94;2076262;28;20647;-65
2023/03/01 10:20:25;;;;;;;29.52;17.17;;;;;;;10.23;41.75;96947.47;2077791;28;20267;-65
2023/03/01 10:21:31;;;;;;;26.25;16.52;;;;;;;10.56;40.98;96946.22;2077609;28;20240;-66
2023/03/01 10:22:33;;;;;;;47.88;30.98;;;;;;;11.17;40.13;96940.22;2077062;28;20236;-63
2023/03/01 10:23:36;;;;;;;36.83;21.42;;;;;;;11.39;39.66;96937.56;2075940;28;20255;-63
2023/03/01 10:24:37;;;;;;;33.95;22.13;;;;;;;10.92;40.03;96937.81;2078236;28;20645;-62
2023/03/01 10:25:55;;;;;;;32.83;17.25;;;;;;;11.48;39.03;96941.56;2072941;28;20201;-63
2023/03/01 10:27:02;;;;;;;28.33;16.50;;;;;;;11.08;39.48;96923.22;2076510;28;20239;-63
2023/03/01 10:28:17;;;;;;;30.92;18.45;;;;;;;11.24;40.06;96931.22;2072926;28;20228;-63
2023/03/01 10:29:24;;;;;;;34.15;17.88;;;;;;;10.30;41.60;96922.81;2074995;28;20680;-63
2023/03/01 10:30:39;;;;;;;29.50;18.45;;;;;;;10.29;41.53;96933.31;2079275;28;20246;-63
2023/03/01 10:31:49;;;;;;;34.20;18.45;;;;;;;11.14;40.14;96934.31;2078581;28;20611;-63
2023/03/01 10:32:53;;;;;;;45.78;17.85;;;;;;;9.74;41.79;96942.31;2072908;28;20625;-63
2023/03/01 10:33:56;;;;;;;38.03;17.45;;;;;;;9.26;43.35;96935.34;2073628;28;20292;-63
2023/03/01 10:34:58;;;;;;;30.30;19.13;;;;;;;8.57;44.00;96943.69;2079102;28;20255;-63
2023/03/01 10:36:00;;;;;;;40.42;18.30;;;;;;;9.88;42.89;96936.59;2070822;28;20193;-63
2023/03/01 10:37:21;;;;;;;31.30;18.17;;;;;;;10.87;41.22;96924.94;2077094;28;20570;-63
2023/03/01 10:38:22;;;;;;;32.90;17.35;;;;;;;10.02;41.48;96924.78;2079992;28;20624;-63
2023/03/01 10:39:26;;;;;;;39.47;17.17;;;;;;;9.23;42.63;96928.50;2071896;28;20201;-64
2023/03/01 10:40:27;;;;;;;32.35;18.05;;;;;;;8.81;43.96;96926.41;2075279;28;20228;-63
2023/03/01 10:41:29;;;;;;;41.83;17.30;;;;;;;10.39;42.46;96920.81;2074660;28;20680;-63
2023/03/01 10:42:33;;;;;;;29.33;17.80;;;;;;;11.27;41.08;96907.59;2072441;28;20288;-63
2023/03/01 10:43:56;;;;;;;33.85;18.20;;;;;;;11.21;39.24;96926.16;2076423;28;20378;-63
2023/03/01 10:45:15;;;;;;;35.25;17.42;;;;;;;8.29;43.64;96929.78;2074425;28;20756;-63
2023/03/01 10:46:25;;;;;;;33.92;18.00;;;;;;;9.21;42.71;96932.91;2075773;28;20229;-63
2023/03/01 10:47:27;;;;;;;33.05;18.05;;;;;;;10.48;41.99;96927.41;2076146;28;20240;-63
2023/03/01 10:48:29;;;;;;;30.05;17.67;;;;;;;10.96;40.78;96928.94;2072385;28;20229;-63
2023/03/01 10:49:31;;;;;;;29.05;16.92;;;;;;;11.11;40.43;96927.44;2073572;28;20201;-63
2023/03/01 10:50:32;;;;;;;28.38;17.17;;;;;;;11.27;39.82;96925.00;2076202;28;20197;-63
2023/03/01 10:51:34;;;;;;;41.25;17.70;;;;;;;10.20;41.46;96926.69;2075410;28;20268;-63
2023/03/01 10:52:40;;;;;;;27.65;16.67;;;;;;;11.06;40.74;96921.56;2078472;28;20201;-63
2023/03/01 10:53:43;;;;;;;33.30;17.15;;;;;;;11.09;40.16;96922.25;2073898;28;20699;-63
2023/03/01 10:54:52;;;;;;;33.60;17.50;;;;;;;11.36;40.41;96926.38;2075370;28;20234;-63
2023/03/01 10:56:14;;;;;;;35.38;17.70;;;;;;;12.03;39.14;96922.53;2076067;28;20208;-62
2023/03/01 10:57:35;;;;;;;30.27;17.73;;;;;;;12.19;39.08;96916.59;2074173;28;20198;-63
2023/03/01 10:58:39;;;;;;;30.75;17.65;;;;;;;11.96;39.32;96908.06;2077852;28;20199;-63
2023/03/01 10:59:41;;;;;;;29.38;17.88;;;;;;;12.68;39.00;96914.25;2073828;28;20200;-63
2023/03/01 11:00:48;;;;;;;33.28;18.75;;;;;;;12.92;38.18;96918.38;2076145;28;20208;-63
2023/03/01 11:02:01;;;;;;;28.80;16.40;;;;;;;13.60;36.66;96918.44;2075262;28;20305;-64
2023/03/01 11:03:16;;;;;;;25.30;16.85;;;;;;;12.80;36.88;96920.69;2076113;28;20205;-64
2023/03/01 11:04:17;;;;;;;37.08;18.35;;;;;;;12.93;37.76;96913.06;2074455;28;20205;-64
2023/03/01 11:05:23;;;;;;;27.92;17.50;;;;;;;13.57;37.66;96910.69;2075941;28;20751;-63
2023/03/01 11:06:26;;;;;;;28.48;17.60;;;;;;;13.26;37.40;96899.16;2075088;28;20228;-64
2023/03/01 11:07:27;;;;;;;30.33;18.40;;;;;;;14.03;37.07;96908.25;2077524;28;20209;-63
2023/03/01 11:08:34;;;;;;;29.35;18.67;;;;;;;14.48;35.93;96905.78;2078218;28;20197;-63
2023/03/01 11:09:38;;;;;;;26.63;16.70;;;;;;;14.09;36.57;96903.59;2073920;28;20260;-63
2023/03/01 11:10:39;;;;;;;31.45;17.35;;;;;;;12.17;36.97;96910.59;2073942;28;20205;-63
2023/03/01 11:11:41;;;;;;;32.25;17.75;;;;;;;10.05;40.10;96903.81;2073585;28;20220;-63
2023/03/01 11:12:43;;;;;;;34.88;17.73;;;;;;;9.57;41.89;96892.53;2076872;28;20203;-63
2023/03/01 11:13:54;;;;;;;31.10;18.25;;;;;;;11.07;40.85;96881.44;2077727;28;20275;-63
2023/03/01 11:14:57;;;;;;;39.97;18.88;;;;;;;10.81;41.10;96893.00;2076716;28;20638;-63
2023/03/01 11:16:01;;;;;;;29.45;18.48;;;;;;;11.95;40.01;96889.75;2071651;28;20199;-63
2023/03/01 11:17:43;;;;;;;31.27;18.27;;;;;;;12.84;38.89;96882.06;2074869;28;20254;-63
2023/03/01 11:19:13;;;;;;;30.45;17.65;;;;;;;13.50;37.25;96880.50;2060397;28;20255;-64
2023/03/01 11:20:14;;;;;;;28.75;16.38;;;;;;;13.81;36.93;96879.69;2063091;28;20198;-63
2023/03/01 11:21:16;;;;;;;28.15;17.13;;;;;;;14.14;36.43;96878.75;2062526;28;20241;-64
2023/03/01 11:22:22;;;;;;;35.15;18.48;;;;;;;14.35;36.12;96865.38;2063158;28;20206;-64
2023/03/01 11:23:25;;;;;;;25.73;16.20;;;;;;;13.90;36.35;96867.84;2062923;28;20301;-63
2023/03/01 11:24:33;;;;;;;32.78;16.63;;;;;;;14.12;36.42;96877.16;2063133;28;20209;-63
2023/03/01 11:25:58;;;;;;;26.08;16.92;;;;;;;13.68;36.49;96876.88;2066161;28;20233;-64
2023/03/01 11:27:03;;;;;;;26.40;17.02;;;;;;;14.04;36.28;96867.09;2064175;28;20218;-64
2023/03/01 11:28:13;;;;;;;29.15;17.92;;;;;;;14.38;35.26;96873.09;2062263;28;20226;-64
2023/03/01 11:29:27;;;;;;;30.48;17.52;;;;;;;13.83;35.50;96871.75;2062953;28;20241;-64
2023/03/01 11:30:43;;;;;;;29.92;17.83;;;;;;;12.99;36.87;96870.81;2062784;28;20281;-64
2023/03/01 11:31:48;;;;;;;31.80;18.83;;;;;;;13.64;36.86;96869.25;2062736;28;20226;-63
2023/03/01 11:33:07;;;;;;;32.97;17.88;;;;;;;14.13;36.37;96871.84;2063019;28;20199;-63
2023/03/01 11:34:19;;;;;;;27.65;18.08;;;;;;;14.44;36.00;96867.50;2063027;28;20264;-64
2023/03/01 11:35:25;;;;;;;33.20;19.25;;;;;;;14.66;35.67;96866.28;2063113;28;20253;-63
2023/03/01 11:36:33;;;;;;;28.95;19.83;;;;;;;15.00;35.27;96867.78;2062304;28;20222;-64
2023/03/01 11:38:04;;;;;;;28.13;18.70;;;;;;;14.13;35.53;96861.34;2062888;28;20206;-64
2023/03/01 11:39:51;;;;;;;25.85;17.80;;;;;;;13.79;36.24;96857.94;2062874;28;20653;-64
2023/03/01 11:41:05;;;;;;;30.35;18.15;;;;;;;13.96;36.07;96871.91;2025640;29;20273;-64
2023/03/01 11:42:15;;;;;;;31.17;16.85;;;;;;;14.43;36.03;96860.53;2026530;29;20708;-65
2023/03/01 11:43:27;;;;;;;88.65;49.78;;;;;;;14.97;35.40;96856.59;2051354;28;20198;-65
2023/03/01 11:44:33;;;;;;;28.27;18.83;;;;;;;14.41;35.28;96854.53;2063062;28;20281;-65
2023/03/01 11:45:50;;;;;;;37.28;22.90;;;;;;;13.93;36.20;96853.69;2062560;28;20198;-66
2023/03/01 11:47:12;;;;;;;30.25;17.85;;;;;;;13.84;35.70;96847.16;2061968;28;20812;-65
2023/03/01 11:48:39;;;;;;;26.38;15.82;;;;;;;14.18;35.91;96842.69;2063098;28;20655;-65
2023/03/01 11:50:08;;;;;;;28.77;16.90;;;;;;;14.41;36.00;96849.28;2062822;28;20198;-58
2023/03/01 11:51:37;;;;;;;28.55;17.45;;;;;;;13.62;35.91;96837.84;2062017;28;20253;-58
2023/03/01 11:53:00;;;;;;;23.83;16.38;;;;;;;13.76;37.01;96844.97;2063044;28;20198;-58
2023/03/01 11:54:14;;;;;;;25.33;17.15;;;;;;;13.58;38.10;96843.34;2074991;28;20205;-58
2023/03/01 11:55:30;;;;;;;25.70;16.50;;;;;;;14.54;35.94;96841.53;2075179;28;20201;-58
2023/03/01 11:56:38;;;;;;;36.60;18.05;;;;;;;14.61;35.25;96836.78;2071543;28;20225;-58
2023/03/01 11:58:14;;;;;;;24.98;17.05;;;;;;;13.33;36.82;96834.13;2075328;28;20204;-58
2023/03/01 11:59:32;;;;;;;32.40;19.02;;;;;;;13.90;36.54;96831.09;2072347;28;20202;-58
2023/03/01 12:01:04;;;;;;;30.50;18.55;;;;;;;14.58;36.16;96834.34;2074723;28;20231;-58
2023/03/01 12:02:34;;;;;;;28.40;17.02;;;;;;;14.83;35.79;96837.25;2062296;28;20320;-58
2023/03/01 12:04:07;;;;;;;32.03;19.25;;;;;;;14.18;35.83;96827.78;2074147;28;20281;-58
2023/03/01 12:05:26;;;;;;;32.85;16.75;;;;;;;14.61;35.97;96824.47;2077932;28;20197;-58
2023/03/01 12:06:52;;;;;;;25.60;17.02;;;;;;;14.78;34.99;96826.16;2074931;28;20221;-58
2023/03/01 12:08:08;;;;;;;26.38;16.10;;;;;;;15.64;34.91;96824.53;2076466;28;20204;-58
2023/03/01 12:09:31;;;;;;;24.95;15.32;;;;;;;15.29;35.12;96825.75;2077688;28;20278;-58
2023/03/01 12:10:43;;;;;;;24.17;15.40;;;;;;;15.81;35.01;96813.81;2075580;28;20201;-58
2023/03/01 12:12:09;;;;;;;31.48;16.98;;;;;;;15.33;34.77;96806.22;2076663;28;20306;-58
2023/03/01 12:13:34;;;;;;;27.13;16.48;;;;;;;15.30;34.77;96806.41;2076930;28;20276;-58
2023/03/01 12:14:44;;;;;;;33.85;15.05;;;;;;;15.36;34.82;96802.53;2074802;28;20198;-58
2023/03/01 12:16:19;;;;;;;27.58;16.33;;;;;;;15.31;35.12;96804.59;2072922;28;20204;-58
2023/03/01 12:17:40;;;;;;;28.23;16.40;;;;;;;14.93;34.82;96805.16;2075922;28;20335;-58
2023/03/01 12:19:16;;;;;;;23.90;15.48;;;;;;;15.49;35.00;96798.22;2073844;28;20691;-58
2023/03/01 12:20:36;;;;;;;26.33;16.35;;;;;;;15.03;34.87;96793.13;2073563;28;20261;-58
2023/03/01 12:21:49;;;;;;;24.88;15.77;;;;;;;15.31;34.92;96799.34;2072999;28;20217;-58
2023/03/01 12:23:27;;;;;;;23.55;16.70;;;;;;;15.04;35.12;96794.00;2075985;28;20571;-58
2023/03/01 12:24:51;;;;;;;25.13;16.88;;;;;;;14.74;35.48;96790.47;2074508;28;20200;-58
2023/03/01 12:25:52;;;;;;;27.02;17.38;;;;;;;15.30;35.09;96784.50;2071281;28;20202;-58
2023/03/01 12:27:00;;;;;;;24.17;16.55;;;;;;;15.73;34.56;96783.63;2072934;28;20229;-58
2023/03/01 12:28:07;;;;;;;28.92;17.08;;;;;;;15.86;34.61;96784.56;2075807;28;20523;-58
2023/03/01 12:29:40;;;;;;;25.25;17.67;;;;;;;16.27;33.89;96780.19;2075457;28;20197;-58
2023/03/01 12:31:00;;;;;;;24.65;17.65;;;;;;;16.16;34.16;96784.38;2075030;28;20230;-58
2023/03/01 12:32:08;;;;;;;24.17;15.93;;;;;;;15.90;33.75;96782.59;2063816;28;20294;-58
2023/03/01 12:33:22;;;;;;;26.23;15.40;;;;;;;15.68;34.24;96776.03;2071863;28;20201;-58
2023/03/01 12:34:45;;;;;;;23.90;15.77;;;;;;;15.38;34.25;96774.34;2072881;28;20236;-58
2023/03/01 12:36:02;;;;;;;26.02;16.85;;;;;;;14.84;34.86;96767.97;2075829;28;20242;-58
2023/03/01 12:37:35;;;;;;;24.70;15.93;;;;;;;15.62;34.63;96773.78;2072151;28;20204;-58
2023/03/01 12:38:43;;;;;;;26.38;16.65;;;;;;;14.73;35.19;96759.88;2074278;28;20675;-58
2023/03/01 12:40:12;;;;;;;27.17;15.73;;;;;;;14.65;35.31;96760.34;2074505;28;20201;-58
2023/03/01 12:41:26;;;;;;;24.42;17.10;;;;;;;14.87;35.11;96756.41;2075337;28;20214;-58
2023/03/01 12:43:01;;;;;;;24.55;15.70;;;;;;;14.05;35.68;96753.25;2075276;28;20694;-58
2023/03/01 12:44:18;;;;;;;23.77;15.70;;;;;;;14.06;35.92;96748.88;2075051;28;20197;-58
2023/03/01 12:45:44;;;;;;;23.75;16.13;;;;;;;14.56;35.35;96760.81;2075889;28;20197;-58
2023/03/01 12:47:18;;;;;;;27.33;16.10;;;;;;;14.40;36.16;96762.66;2075826;28;20359;-58
2023/03/01 12:48:22;;;;;;;27.30;17.27;;;;;;;15.40;35.13;96756.72;2050579;28;20660;-58
2023/03/01 12:49:32;;;;;;;27.45;17.23;;;;;;;15.38;34.69;96755.94;2075105;28;20201;-58
2023/03/01 12:50:41;;;;;;;24.02;15.93;;;;;;;15.59;34.53;96760.78;2075084;28;20204;-58
2023/03/01 12:51:58;;;;;;;27.00;16.77;;;;;;;15.53;34.26;96754.16;2074376;28;20252;-58
2023/03/01 12:52:59;;;;;;;24.38;15.10;;;;;;;15.51;34.07;96753.38;2076775;28;20225;-58
2023/03/01 12:54:12;;;;;;;29.02;17.70;;;;;;;14.77;34.83;96742.16;2075819;28;20199;-58
2023/03/01 12:55:32;;;;;;;29.27;16.30;;;;;;;14.33;36.27;96754.28;2071856;28;20206;-58
2023/03/01 12:56:38;;;;;;;32.53;16.27;;;;;;;14.67;36.13;96752.34;2072684;28;20236;-58
2023/03/01 12:57:46;;;;;;;27.27;16.23;;;;;;;15.12;36.64;96749.66;2071925;28;20217;-58
2023/03/01 12:59:06;;;;;;;23.85;15.20;;;;;;;15.22;35.11;96742.88;2073905;28;20259;-58
2023/03/01 13:00:32;;;;;;;24.17;15.40;;;;;;;15.05;35.05;96753.63;2072954;28;20644;-58
2023/03/01 13:01:37;;;;;;;22.17;15.68;;;;;;;14.85;35.44;96740.75;2073663;28;20731;-58
2023/03/01 13:02:53;;;;;;;31.20;17.65;;;;;;;14.82;35.97;96722.50;2074637;28;20202;-58
2023/03/01 13:04:21;;;;;;;32.45;19.48;;;;;;;15.51;35.68;96732.34;2071228;28;20201;-59
2023/03/01 13:05:27;;;;;;;43.92;26.67;;;;;;;15.79;34.48;96736.66;2074386;28;20213;-58
2023/03/01 13:06:43;;;;;;;26.50;17.75;;;;;;;15.41;35.31;96733.84;2076011;28;20269;-58
2023/03/01 13:07:53;;;;;;;30.90;16.40;;;;;;;16.11;34.24;96728.53;2074903;28;20676;-58
2023/03/01 13:09:02;;;;;;;28.38;15.35;;;;;;;16.05;34.46;96730.69;2073386;28;20197;-58
2023/03/01 13:10:23;;;;;;;24.40;15.80;;;;;;;16.24;34.07;96725.91;2075040;28;20330;-58
2023/03/01 13:11:24;;;;;;;23.90;16.35;;;;;;;15.80;34.61;96724.38;2073547;28;20612;-58
2023/03/01 13:12:46;;;;;;;23.73;16.10;;;;;;;14.28;35.74;96724.81;2073360;28;20204;-58
2023/03/01 13:13:48;;;;;;;24.27;17.50;;;;;;;14.06;35.96;96709.50;2073320;28;20189;-58
2023/03/01 13:14:54;;;;;;;27.00;16.25;;;;;;;14.64;36.40;96716.59;2075544;28;20212;-57
2023/03/01 13:15:56;;;;;;;24.73;15.60;;;;;;;15.34;35.42;96715.00;2071476;28;20205;-58
2023/03/01 13:16:57;;;;;;;25.63;15.27;;;;;;;16.24;34.22;96717.16;2072363;28;20193;-58
2023/03/01 13:18:00;;;;;;;23.63;16.23;;;;;;;15.13;35.09;96715.38;2075556;28;20654;-58
2023/03/01 13:19:17;;;;;;;21.90;14.90;;;;;;;15.35;35.37;96719.31;2076116;28;20301;-59
2023/03/01 13:20:23;;;;;;;22.50;14.38;;;;;;;14.90;35.90;96718.59;2075260;28;20550;-58
2023/03/01 13:21:31;;;;;;;24.75;15.48;;;;;;;13.99;36.84;96722.09;2075276;28;20235;-58
2023/03/01 13:22:33;;;;;;;27.50;15.30;;;;;;;14.72;35.87;96710.88;2075217;28;20546;-58
2023/03/01 13:23:39;;;;;;;26.08;15.85;;;;;;;15.11;35.29;96701.47;2075136;28;20228;-58
2023/03/01 13:24:42;;;;;;;31.85;16.02;;;;;;;15.39;35.29;96715.53;2076149;28;20208;-58
2023/03/01 13:25:58;;;;;;;23.60;15.40;;;;;;;15.21;35.88;96709.66;2076751;28;20763;-58
2023/03/01 13:27:09;;;;;;;25.02;15.88;;;;;;;15.83;34.81;96709.25;2073435;28;20642;-58
2023/03/01 13:28:35;;;;;;;24.52;15.18;;;;;;;16.06;34.01;96708.69;2079375;28;20202;-58
2023/03/01 13:29:48;;;;;;;23.15;16.73;;;;;;;15.74;34.56;96708.97;2075633;28;20228;-58
2023/03/01 13:30:49;;;;;;;23.75;16.10;;;;;;;15.45;34.80;96699.38;2076688;28;20519;-58
2023/03/01 13:31:51;;;;;;;23.30;15.80;;;;;;;15.87;35.10;96707.28;2075546;28;20561;-58
2023/03/01 13:33:28;;;;;;;28.60;17.08;;;;;;;15.56;34.96;96711.00;2076118;28;20782;-58
2023/03/01 13:34:44;;;;;;;33.45;16.50;;;;;;;15.04;35.69;96710.69;2076252;28;20282;-58
2023/03/01 13:35:45;;;;;;;26.67;17.38;;;;;;;15.12;35.64;96711.06;2075527;28;20239;-58
2023/03/01 13:36:48;;;;;;;23.85;16.02;;;;;;;15.52;35.54;96724.34;2076887;28;20687;-58
2023/03/01 13:37:50;;;;;;;28.30;17.40;;;;;;;15.72;35.34;96714.34;2077334;28;20197;-58
2023/03/01 13:38:57;;;;;;;23.55;16.13;;;;;;;15.77;34.90;96701.72;2076918;28;20264;-58
2023/03/01 13:40:05;;;;;;;25.00;17.48;;;;;;;15.44;35.11;96713.47;2079796;28;20201;-59
2023/03/01 13:41:07;;;;;;;26.10;15.98;;;;;;;15.70;35.07;96718.00;2067933;28;20225;-58
2023/03/01 13:42:31;;;;;;;22.70;15.45;;;;;;;14.64;36.13;96707.81;2077173;28;20292;-58
2023/03/01 13:43:44;;;;;;;25.10;17.40;;;;;;;14.29;36.41;96708.13;2076454;28;20308;-58
2023/03/01 13:44:45;;;;;;;25.30;15.77;;;;;;;14.54;37.31;96707.53;2072974;28;20202;-58
2023/03/01 13:45:47;;;;;;;27.05;17.48;;;;;;;14.96;36.11;96705.06;2069911;28;20213;-58
2023/03/01 13:46:51;;;;;;;27.23;17.45;;;;;;;14.53;36.50;96709.31;2077297;28;20225;-58
2023/03/01 13:47:58;;;;;;;28.90;18.23;;;;;;;13.99;37.69;96711.59;2081120;28;20689;-57
2023/03/01 13:49:00;;;;;;;27.42;17.80;;;;;;;14.39;36.39;96717.16;2081063;28;20197;-57
2023/03/01 13:50:04;;;;;;;26.17;17.60;;;;;;;14.61;36.32;96708.84;2076993;28;20197;-57
2023/03/01 13:51:09;;;;;;;31.40;17.00;;;;;;;14.88;36.13;96699.41;2074499;28;20225;-57
2023/03/01 13:52:36;;;;;;;27.88;17.40;;;;;;;15.06;36.09;96706.19;2074635;28;20202;-57
2023/03/01 13:53:44;;;;;;;28.98;18.23;;;;;;;15.26;35.90;96701.47;2075085;28;20652;-57
2023/03/01 13:54:46;;;;;;;25.23;16.50;;;;;;;14.93;36.03;96713.13;2073449;28;20636;-58
2023/03/01 13:55:51;;;;;;;31.77;18.42;;;;;;;14.56;36.56;96697.75;2073082;28;20209;-58
2023/03/01 13:56:54;;;;;;;27.42;17.83;;;;;;;14.68;36.17;96701.50;2075495;28;20201;-57
2023/03/01 13:57:58;;;;;;;26.02;17.23;;;;;;;15.21;36.34;96706.16;2075528;28;20208;-58
2023/03/01 13:59:12;;;;;;;26.35;18.20;;;;;;;15.29;35.77;96707.38;2075109;28;20228;-58
2023/03/01 14:00:44;;;;;;;25.40;16.58;;;;;;;13.98;37.31;96704.66;2076973;28;20197;-57
2023/03/01 14:01:55;;;;;;;26.60;17.83;;;;;;;13.48;38.35;96704.78;2069279;28;20225;-65
2023/03/01 14:03:17;;;;;;;28.98;18.25;;;;;;;14.45;36.91;96711.56;2076190;28;20201;-65
2023/03/01 14:04:20;;;;;;;27.02;17.17;;;;;;;13.57;37.37;96713.94;2076724;28;20286;-65
2023/03/01 14:05:22;;;;;;;28.30;17.88;;;;;;;14.36;37.58;96714.72;2080423;28;20215;-65
2023/03/01 14:06:35;;;;;;;25.67;17.23;;;;;;;14.49;36.81;96710.44;2080123;28;20236;-67